Mosheim, Tennessee
Current Conditions -  °F | °C
As of 2:55 PM on Saturday 25 Oct 2014 (Local Time) from KMOR Reporting Station
Clear Clear  
Wind Chill: 70°   Ceiling: Unl
Heat Index: 70°   Visibility: 10mi
Dew Point: 48°   Wind: 3mph
Humidity: 46%   Direction: NA
Pressure: 30.04"   Gusts: NA
Location:  36.19°N, 82.96°W
Report Text: KMOR 251855Z AUTO VRB03KT 10SM CLR 21/09 A3004 RMK
Loading
Personal Weather Stations






























Interactive Weather Map
Tropical Storm Tracking
New forecast layout! Learn more

10-Day Weather Forecast

Advertisements
Track Severe Weather on mobile